sensor_id;sensor_type;location;lat;lon;timestamp;pressure;altitude;pressure_sealevel;temperature;humidity
70127;BME280;57491;42.694;23.314;2022-10-17T00:00:11;96393.25;;;10.98;60.20
70127;BME280;57491;42.694;23.314;2022-10-17T00:02:38;96383.50;;;10.82;60.45
70127;BME280;57491;42.694;23.314;2022-10-17T00:05:06;96397.25;;;10.92;60.80
70127;BME280;57491;42.694;23.314;2022-10-17T00:07:34;96393.84;;;10.92;61.27
70127;BME280;57491;42.694;23.314;2022-10-17T00:10:02;96395.59;;;10.91;60.52
70127;BME280;57491;42.694;23.314;2022-10-17T00:12:29;96396.94;;;10.95;60.68
70127;BME280;57491;42.694;23.314;2022-10-17T00:14:56;96400.06;;;10.99;60.95
70127;BME280;57491;42.694;23.314;2022-10-17T00:17:23;96394.97;;;10.89;60.92
70127;BME280;57491;42.694;23.314;2022-10-17T00:19:50;96379.41;;;10.80;61.01
70127;BME280;57491;42.694;23.314;2022-10-17T00:22:17;96400.06;;;10.81;60.05
70127;BME280;57491;42.694;23.314;2022-10-17T00:24:46;96398.78;;;10.67;60.88
70127;BME280;57491;42.694;23.314;2022-10-17T00:27:13;96401.94;;;10.71;60.85
70127;BME280;57491;42.694;23.314;2022-10-17T00:29:40;96399.34;;;10.71;60.37
70127;BME280;57491;42.694;23.314;2022-10-17T00:32:07;96396.88;;;10.69;60.43
70127;BME280;57491;42.694;23.314;2022-10-17T00:34:34;96406.16;;;10.72;60.63
70127;BME280;57491;42.694;23.314;2022-10-17T00:37:01;96398.88;;;10.76;60.77
70127;BME280;57491;42.694;23.314;2022-10-17T00:39:28;96407.34;;;10.78;62.23
70127;BME280;57491;42.694;23.314;2022-10-17T00:41:57;96408.16;;;10.78;61.46
70127;BME280;57491;42.694;23.314;2022-10-17T00:47:28;96401.19;;;10.79;61.24
70127;BME280;57491;42.694;23.314;2022-10-17T00:49:57;96398.34;;;10.72;61.11
70127;BME280;57491;42.694;23.314;2022-10-17T00:52:26;96384.88;;;10.59;61.24
70127;BME280;57491;42.694;23.314;2022-10-17T00:54:57;96405.13;;;10.83;61.42
70127;BME280;57491;42.694;23.314;2022-10-17T00:57:29;96410.47;;;10.81;61.82
70127;BME280;57491;42.694;23.314;2022-10-17T00:59:58;96412.41;;;10.79;62.39
70127;BME280;57491;42.694;23.314;2022-10-17T01:02:28;96412.53;;;10.60;61.38
70127;BME280;57491;42.694;23.314;2022-10-17T01:04:55;96408.28;;;10.59;63.06
70127;BME280;57491;42.694;23.314;2022-10-17T01:07:24;96412.84;;;10.57;61.78
70127;BME280;57491;42.694;23.314;2022-10-17T01:09:52;96412.16;;;10.55;61.15
70127;BME280;57491;42.694;23.314;2022-10-17T01:12:21;96404.31;;;10.37;61.62
70127;BME280;57491;42.694;23.314;2022-10-17T01:15:00;96416.75;;;10.43;61.66
70127;BME280;57491;42.694;23.314;2022-10-17T01:17:34;96404.19;;;10.39;61.88
70127;BME280;57491;42.694;23.314;2022-10-17T01:23:26;96406.13;;;10.27;61.38
70127;BME280;57491;42.694;23.314;2022-10-17T01:26:04;96404.94;;;10.21;62.33
70127;BME280;57491;42.694;23.314;2022-10-17T01:29:04;96407.69;;;10.10;61.99
70127;BME280;57491;42.694;23.314;2022-10-17T01:31:41;96408.00;;;10.07;62.84
70127;BME280;57491;42.694;23.314;2022-10-17T01:34:15;96403.63;;;10.08;61.81
70127;BME280;57491;42.694;23.314;2022-10-17T01:36:49;96405.94;;;10.01;62.62
70127;BME280;57491;42.694;23.314;2022-10-17T01:39:23;96398.91;;;9.84;62.26
70127;BME280;57491;42.694;23.314;2022-10-17T01:41:58;96380.78;;;9.65;62.71
70127;BME280;57491;42.694;23.314;2022-10-17T01:44:33;96404.66;;;9.78;63.71
70127;BME280;57491;42.694;23.314;2022-10-17T01:47:05;96408.09;;;9.78;63.05
70127;BME280;57491;42.694;23.314;2022-10-17T01:49:34;96406.50;;;9.68;62.69
70127;BME280;57491;42.694;23.314;2022-10-17T01:52:06;96412.22;;;9.62;63.14
70127;BME280;57491;42.694;23.314;2022-10-17T01:54:39;96416.06;;;9.58;62.89
70127;BME280;57491;42.694;23.314;2022-10-17T01:57:14;96404.06;;;9.47;62.79
70127;BME280;57491;42.694;23.314;2022-10-17T01:59:45;96427.41;;;9.57;63.00
70127;BME280;57491;42.694;23.314;2022-10-17T02:02:16;96423.03;;;9.57;63.52
70127;BME280;57491;42.694;23.314;2022-10-17T02:04:46;96424.41;;;9.61;64.30
70127;BME280;57491;42.694;23.314;2022-10-17T02:07:16;96381.41;;;9.39;62.99
70127;BME280;57491;42.694;23.314;2022-10-17T02:09:43;96420.84;;;9.62;62.83
70127;BME280;57491;42.694;23.314;2022-10-17T02:12:17;96431.91;;;9.64;62.43
70127;BME280;57491;42.694;23.314;2022-10-17T02:14:59;96433.53;;;9.65;63.77
70127;BME280;57491;42.694;23.314;2022-10-17T02:17:39;96438.06;;;9.63;63.16
70127;BME280;57491;42.694;23.314;2022-10-17T02:20:16;96435.88;;;9.59;63.04
70127;BME280;57491;42.694;23.314;2022-10-17T02:22:51;96439.69;;;9.55;63.34
70127;BME280;57491;42.694;23.314;2022-10-17T02:25:30;96436.44;;;9.53;63.66
70127;BME280;57491;42.694;23.314;2022-10-17T02:28:05;96426.47;;;9.48;62.96
70127;BME280;57491;42.694;23.314;2022-10-17T02:30:39;96427.41;;;9.47;62.48
70127;BME280;57491;42.694;23.314;2022-10-17T02:33:12;96433.31;;;9.39;63.28
70127;BME280;57491;42.694;23.314;2022-10-17T02:35:43;96434.13;;;9.30;62.94
70127;BME280;57491;42.694;23.314;2022-10-17T02:38:12;96436.19;;;9.36;63.18
70127;BME280;57491;42.694;23.314;2022-10-17T02:40:41;96451.06;;;9.34;63.26
70127;BME280;57491;42.694;23.314;2022-10-17T02:43:10;96437.97;;;9.26;63.11
70127;BME280;57491;42.694;23.314;2022-10-17T02:45:39;96454.78;;;9.32;63.91
70127;BME280;57491;42.694;23.314;2022-10-17T02:48:11;96441.66;;;9.24;63.59
70127;BME280;57491;42.694;23.314;2022-10-17T02:50:46;96465.94;;;9.32;63.63
70127;BME280;57491;42.694;23.314;2022-10-17T02:53:20;96457.91;;;9.35;63.81
70127;BME280;57491;42.694;23.314;2022-10-17T02:55:53;96436.19;;;9.17;63.36
70127;BME280;57491;42.694;23.314;2022-10-17T02:58:25;96468.13;;;9.37;62.47
70127;BME280;57491;42.694;23.314;2022-10-17T03:00:54;96466.53;;;9.36;64.30
70127;BME280;57491;42.694;23.314;2022-10-17T03:03:24;96466.25;;;9.39;63.87
70127;BME280;57491;42.694;23.314;2022-10-17T03:05:52;96469.25;;;9.34;64.31
70127;BME280;57491;42.694;23.314;2022-10-17T03:08:20;96473.72;;;9.32;63.67
70127;BME280;57491;42.694;23.314;2022-10-17T03:10:47;96479.22;;;9.29;65.35
70127;BME280;57491;42.694;23.314;2022-10-17T03:13:15;96441.25;;;9.09;66.00
70127;BME280;57491;42.694;23.314;2022-10-17T03:15:42;96474.97;;;9.38;65.30
70127;BME280;57491;42.694;23.314;2022-10-17T03:18:09;96482.09;;;9.36;64.35
70127;BME280;57491;42.694;23.314;2022-10-17T03:20:38;96475.66;;;9.30;65.24
70127;BME280;57491;42.694;23.314;2022-10-17T03:23:05;96481.81;;;9.39;64.56
70127;BME280;57491;42.694;23.314;2022-10-17T03:25:32;96482.75;;;9.38;63.83
70127;BME280;57491;42.694;23.314;2022-10-17T03:27:59;96474.16;;;9.37;62.59
70127;BME280;57491;42.694;23.314;2022-10-17T03:30:27;96464.34;;;9.31;63.54
70127;BME280;57491;42.694;23.314;2022-10-17T03:32:54;96465.28;;;9.30;63.88
70127;BME280;57491;42.694;23.314;2022-10-17T03:35:21;96465.81;;;9.24;63.56
70127;BME280;57491;42.694;23.314;2022-10-17T03:37:49;96480.44;;;9.25;63.00
70127;BME280;57491;42.694;23.314;2022-10-17T03:40:16;96480.44;;;9.16;62.62
70127;BME280;57491;42.694;23.314;2022-10-17T03:42:43;96455.03;;;9.10;62.93
70127;BME280;57491;42.694;23.314;2022-10-17T03:45:10;96478.38;;;9.19;63.70
70127;BME280;57491;42.694;23.314;2022-10-17T03:47:37;96486.88;;;9.31;63.33
70127;BME280;57491;42.694;23.314;2022-10-17T03:50:05;96491.25;;;9.30;63.34
70127;BME280;57491;42.694;23.314;2022-10-17T03:52:32;96494.25;;;9.26;63.65
70127;BME280;57491;42.694;23.314;2022-10-17T03:55:01;96496.53;;;9.19;62.67
70127;BME280;57491;42.694;23.314;2022-10-17T03:57:28;96496.53;;;9.19;63.26
70127;BME280;57491;42.694;23.314;2022-10-17T03:59:55;96494.38;;;9.24;62.88
70127;BME280;57491;42.694;23.314;2022-10-17T04:02:22;96498.19;;;9.30;63.41
70127;BME280;57491;42.694;23.314;2022-10-17T04:04:49;96498.31;;;9.28;63.52
70127;BME280;57491;42.694;23.314;2022-10-17T04:07:16;96499.31;;;9.27;64.19
70127;BME280;57491;42.694;23.314;2022-10-17T04:09:43;96506.69;;;9.22;63.96
70127;BME280;57491;42.694;23.314;2022-10-17T04:12:11;96503.94;;;9.24;64.57
70127;BME280;57491;42.694;23.314;2022-10-17T04:14:38;96502.44;;;9.31;62.58
70127;BME280;57491;42.694;23.314;2022-10-17T04:17:06;96508.28;;;9.23;62.07
70127;BME280;57491;42.694;23.314;2022-10-17T04:19:33;96505.84;;;9.22;62.62
70127;BME280;57491;42.694;23.314;2022-10-17T04:22:00;96497.34;;;9.10;63.13
70127;BME280;57491;42.694;23.314;2022-10-17T04:24:27;96511.03;;;9.12;63.11
70127;BME280;57491;42.694;23.314;2022-10-17T04:26:55;96511.03;;;9.12;63.49
70127;BME280;57491;42.694;23.314;2022-10-17T04:29:24;96512.25;;;9.08;63.68
70127;BME280;57491;42.694;23.314;2022-10-17T04:31:51;96512.09;;;9.10;63.49
70127;BME280;57491;42.694;23.314;2022-10-17T04:34:18;96510.47;;;9.09;63.28
70127;BME280;57491;42.694;23.314;2022-10-17T04:36:45;96517.56;;;9.07;63.42
70127;BME280;57491;42.694;23.314;2022-10-17T04:39:13;96519.75;;;9.02;62.58
70127;BME280;57491;42.694;23.314;2022-10-17T04:41:40;96528.34;;;9.02;63.88
70127;BME280;57491;42.694;23.314;2022-10-17T04:44:08;96504.16;;;8.92;63.83
70127;BME280;57491;42.694;23.314;2022-10-17T04:46:37;96522.50;;;9.00;63.26
70127;BME280;57491;42.694;23.314;2022-10-17T04:49:04;96524.25;;;9.00;63.06
70127;BME280;57491;42.694;23.314;2022-10-17T04:51:31;96524.78;;;8.93;63.14
70127;BME280;57491;42.694;23.314;2022-10-17T04:53:58;96523.69;;;8.86;63.47
70127;BME280;57491;42.694;23.314;2022-10-17T04:56:25;96527.34;;;8.84;63.06
70127;BME280;57491;42.694;23.314;2022-10-17T04:58:52;96532.81;;;8.81;63.42
70127;BME280;57491;42.694;23.314;2022-10-17T05:01:21;96526.69;;;8.82;64.30
70127;BME280;57491;42.694;23.314;2022-10-17T05:03:51;96536.50;;;8.88;64.19
70127;BME280;57491;42.694;23.314;2022-10-17T05:06:20;96517.69;;;8.86;63.13
70127;BME280;57491;42.694;23.314;2022-10-17T05:08:47;96523.69;;;8.96;62.91
70127;BME280;57491;42.694;23.314;2022-10-17T05:11:19;96528.19;;;8.94;63.98
70127;BME280;57491;42.694;23.314;2022-10-17T05:13:49;96513.16;;;8.88;63.46
70127;BME280;57491;42.694;23.314;2022-10-17T05:16:16;96511.69;;;8.95;62.92
70127;BME280;57491;42.694;23.314;2022-10-17T05:18:43;96554.47;;;9.20;63.06
70127;BME280;57491;42.694;23.314;2022-10-17T05:21:12;96553.94;;;9.26;62.60
70127;BME280;57491;42.694;23.314;2022-10-17T05:23:39;96549.16;;;9.31;62.03
70127;BME280;57491;42.694;23.314;2022-10-17T05:26:06;96546.41;;;9.32;61.41
70127;BME280;57491;42.694;23.314;2022-10-17T05:28:33;96562.28;;;9.49;61.50
70127;BME280;57491;42.694;23.314;2022-10-17T05:31:02;96561.88;;;9.63;62.04
70127;BME280;57491;42.694;23.314;2022-10-17T05:33:30;96557.50;;;9.73;60.35
70127;BME280;57491;42.694;23.314;2022-10-17T05:35:57;96563.91;;;9.88;60.42
70127;BME280;57491;42.694;23.314;2022-10-17T05:38:26;96570.06;;;9.97;59.96
70127;BME280;57491;42.694;23.314;2022-10-17T05:40:56;96564.72;;;10.08;58.83
70127;BME280;57491;42.694;23.314;2022-10-17T05:43:24;96562.38;;;10.14;58.32
70127;BME280;57491;42.694;23.314;2022-10-17T05:45:52;96557.59;;;10.19;58.08
70127;BME280;57491;42.694;23.314;2022-10-17T05:48:19;96540.22;;;10.29;57.01
70127;BME280;57491;42.694;23.314;2022-10-17T05:50:47;96568.88;;;10.57;57.00
70127;BME280;57491;42.694;23.314;2022-10-17T05:53:14;96537.28;;;10.42;56.77
70127;BME280;57491;42.694;23.314;2022-10-17T05:55:43;96577.78;;;10.82;56.74
70127;BME280;57491;42.694;23.314;2022-10-17T05:58:10;96568.84;;;10.94;56.47
70127;BME280;57491;42.694;23.314;2022-10-17T06:00:37;96589.22;;;11.26;55.38
70127;BME280;57491;42.694;23.314;2022-10-17T06:03:04;96579.13;;;11.40;54.88
70127;BME280;57491;42.694;23.314;2022-10-17T06:05:34;96589.94;;;11.63;54.17
70127;BME280;57491;42.694;23.314;2022-10-17T06:08:01;96586.09;;;11.85;53.96
70127;BME280;57491;42.694;23.314;2022-10-17T06:10:28;96593.81;;;12.12;52.79
70127;BME280;57491;42.694;23.314;2022-10-17T06:12:57;96595.41;;;12.31;52.60
70127;BME280;57491;42.694;23.314;2022-10-17T06:15:24;96592.16;;;12.55;51.56
70127;BME280;57491;42.694;23.314;2022-10-17T06:17:51;96595.53;;;12.73;51.27
70127;BME280;57491;42.694;23.314;2022-10-17T06:20:18;96543.56;;;12.53;51.08
70127;BME280;57491;42.694;23.314;2022-10-17T06:22:45;96596.44;;;12.97;49.90
70127;BME280;57491;42.694;23.314;2022-10-17T06:25:12;96598.53;;;13.20;49.77
70127;BME280;57491;42.694;23.314;2022-10-17T06:27:39;96601.00;;;13.29;48.86
70127;BME280;57491;42.694;23.314;2022-10-17T06:30:09;96608.88;;;13.37;49.85
70127;BME280;57491;42.694;23.314;2022-10-17T06:32:36;96614.03;;;13.63;48.98
70127;BME280;57491;42.694;23.314;2022-10-17T06:35:03;96616.19;;;13.92;48.43
70127;BME280;57491;42.694;23.314;2022-10-17T06:37:31;96619.16;;;14.13;47.00
70127;BME280;57491;42.694;23.314;2022-10-17T06:39:58;96614.41;;;14.33;46.28
70127;BME280;57491;42.694;23.314;2022-10-17T06:42:25;96610.31;;;14.47;45.96
70127;BME280;57491;42.694;23.314;2022-10-17T06:44:52;96617.00;;;14.65;45.75
70127;BME280;57491;42.694;23.314;2022-10-17T06:47:21;96610.59;;;14.84;45.13
70127;BME280;57491;42.694;23.314;2022-10-17T06:49:48;96619.53;;;15.06;44.37
70127;BME280;57491;42.694;23.314;2022-10-17T06:52:15;96612.91;;;15.26;43.92
70127;BME280;57491;42.694;23.314;2022-10-17T06:54:42;96610.34;;;15.49;43.53
70127;BME280;57491;42.694;23.314;2022-10-17T06:57:10;96614.03;;;15.71;42.58
70127;BME280;57491;42.694;23.314;2022-10-17T06:59:37;96616.38;;;15.88;42.66
70127;BME280;57491;42.694;23.314;2022-10-17T07:02:04;96595.56;;;15.87;42.33
70127;BME280;57491;42.694;23.314;2022-10-17T07:04:32;96616.69;;;16.16;41.84
70127;BME280;57491;42.694;23.314;2022-10-17T07:06:59;96619.53;;;16.29;41.21
70127;BME280;57491;42.694;23.314;2022-10-17T07:09:28;96622.97;;;16.30;41.37
70127;BME280;57491;42.694;23.314;2022-10-17T07:11:55;96614.81;;;16.39;41.33
70127;BME280;57491;42.694;23.314;2022-10-17T07:14:22;96612.56;;;16.59;40.43
70127;BME280;57491;42.694;23.314;2022-10-17T07:16:56;96607.34;;;16.88;40.22
70127;BME280;57491;42.694;23.314;2022-10-17T07:19:23;96608.31;;;17.02;39.64
70127;BME280;57491;42.694;23.314;2022-10-17T07:21:53;96608.53;;;17.01;39.72
70127;BME280;57491;42.694;23.314;2022-10-17T07:24:20;96605.41;;;17.26;39.20
70127;BME280;57491;42.694;23.314;2022-10-17T07:26:47;96628.72;;;17.59;38.75
70127;BME280;57491;42.694;23.314;2022-10-17T07:29:14;96623.63;;;17.93;38.28
70127;BME280;57491;42.694;23.314;2022-10-17T07:31:41;96620.50;;;18.25;37.74
70127;BME280;57491;42.694;23.314;2022-10-17T07:34:10;96616.44;;;18.51;37.21
70127;BME280;57491;42.694;23.314;2022-10-17T07:36:37;96615.16;;;18.89;36.55
70127;BME280;57491;42.694;23.314;2022-10-17T07:39:06;96620.97;;;19.12;36.24
70127;BME280;57491;42.694;23.314;2022-10-17T07:41:33;96628.38;;;19.37;34.90
70127;BME280;57491;42.694;23.314;2022-10-17T07:44:00;96613.31;;;19.58;34.88
70127;BME280;57491;42.694;23.314;2022-10-17T07:46:27;96623.31;;;19.83;34.07
70127;BME280;57491;42.694;23.314;2022-10-17T07:48:54;96628.00;;;19.81;34.34
70127;BME280;57491;42.694;23.314;2022-10-17T07:51:21;96621.72;;;19.88;34.21
70127;BME280;57491;42.694;23.314;2022-10-17T07:53:48;96621.75;;;20.01;33.68
70127;BME280;57491;42.694;23.314;2022-10-17T07:56:17;96632.78;;;20.25;33.48
70127;BME280;57491;42.694;23.314;2022-10-17T07:58:44;96625.91;;;20.37;32.88
70127;BME280;57491;42.694;23.314;2022-10-17T08:01:12;96623.06;;;20.58;32.63
70127;BME280;57491;42.694;23.314;2022-10-17T08:03:40;96614.28;;;20.90;32.48
70127;BME280;57491;42.694;23.314;2022-10-17T08:06:07;96621.00;;;21.13;31.86
70127;BME280;57491;42.694;23.314;2022-10-17T08:08:34;96622.19;;;21.17;31.21
70127;BME280;57491;42.694;23.314;2022-10-17T08:11:04;96617.75;;;20.98;31.39
70127;BME280;57491;42.694;23.314;2022-10-17T08:13:33;96614.69;;;21.07;31.94
70127;BME280;57491;42.694;23.314;2022-10-17T08:16:01;96612.19;;;21.32;31.21
70127;BME280;57491;42.694;23.314;2022-10-17T08:18:29;96610.13;;;21.85;31.00
70127;BME280;57491;42.694;23.314;2022-10-17T08:20:58;96612.09;;;22.34;29.56
70127;BME280;57491;42.694;23.314;2022-10-17T08:23:26;96601.28;;;22.11;29.38
70127;BME280;57491;42.694;23.314;2022-10-17T08:25:53;96602.38;;;21.97;30.11
70127;BME280;57491;42.694;23.314;2022-10-17T08:28:20;96605.16;;;22.08;30.30
70127;BME280;57491;42.694;23.314;2022-10-17T08:30:49;96596.13;;;22.72;29.00
70127;BME280;57491;42.694;23.314;2022-10-17T08:33:16;96595.84;;;23.23;28.28
70127;BME280;57491;42.694;23.314;2022-10-17T08:35:43;96588.16;;;23.70;27.19
70127;BME280;57491;42.694;23.314;2022-10-17T08:38:10;96590.94;;;24.05;26.10
70127;BME280;57491;42.694;23.314;2022-10-17T08:40:37;96601.03;;;24.56;25.39
70127;BME280;57491;42.694;23.314;2022-10-17T08:43:27;96596.22;;;25.11;24.77
70127;BME280;57491;42.694;23.314;2022-10-17T08:46:00;96591.31;;;25.31;23.91
70127;BME280;57491;42.694;23.314;2022-10-17T08:48:31;96565.50;;;25.31;23.63
70127;BME280;57491;42.694;23.314;2022-10-17T08:51:02;96603.47;;;25.90;23.42
70127;BME280;57491;42.694;23.314;2022-10-17T08:53:35;96598.25;;;26.12;23.56
70127;BME280;57491;42.694;23.314;2022-10-17T08:56:12;96601.91;;;26.34;23.26
70127;BME280;57491;42.694;23.314;2022-10-17T08:58:41;96601.03;;;26.79;21.64
70127;BME280;57491;42.694;23.314;2022-10-17T09:01:12;96605.78;;;26.43;21.61
70127;BME280;57491;42.694;23.314;2022-10-17T09:04:01;96597.78;;;26.60;21.24
70127;BME280;57491;42.694;23.314;2022-10-17T09:06:34;96607.81;;;27.03;21.51
70127;BME280;57491;42.694;23.314;2022-10-17T09:09:14;96602.38;;;26.81;20.68
70127;BME280;57491;42.694;23.314;2022-10-17T09:11:55;96602.91;;;26.95;20.32
70127;BME280;57491;42.694;23.314;2022-10-17T09:14:50;96600.56;;;27.20;19.89
70127;BME280;57491;42.694;23.314;2022-10-17T09:17:28;96601.94;;;27.61;20.10
70127;BME280;57491;42.694;23.314;2022-10-17T09:20:02;96608.25;;;28.52;18.91
70127;BME280;57491;42.694;23.314;2022-10-17T09:22:36;96596.47;;;28.48;18.12
70127;BME280;57491;42.694;23.314;2022-10-17T09:25:09;96598.41;;;28.90;18.33
70127;BME280;57491;42.694;23.314;2022-10-17T09:27:40;96598.19;;;29.38;17.71
70127;BME280;57491;42.694;23.314;2022-10-17T09:30:22;96602.66;;;29.80;16.83
70127;BME280;57491;42.694;23.314;2022-10-17T09:32:53;96590.63;;;29.87;16.29
70127;BME280;57491;42.694;23.314;2022-10-17T09:35:21;96592.00;;;30.00;16.97
70127;BME280;57491;42.694;23.314;2022-10-17T09:37:49;96590.50;;;30.39;16.51
70127;BME280;57491;42.694;23.314;2022-10-17T09:40:17;96588.09;;;30.93;15.94
70127;BME280;57491;42.694;23.314;2022-10-17T09:42:46;96583.75;;;31.23;15.67
70127;BME280;57491;42.694;23.314;2022-10-17T09:45:18;96587.25;;;31.23;14.93
70127;BME280;57491;42.694;23.314;2022-10-17T09:47:55;96587.00;;;31.05;15.24
70127;BME280;57491;42.694;23.314;2022-10-17T09:50:26;96585.38;;;30.98;15.00
70127;BME280;57491;42.694;23.314;2022-10-17T09:52:54;96584.03;;;31.16;15.21
70127;BME280;57491;42.694;23.314;2022-10-17T09:55:30;96586.22;;;30.74;14.53
70127;BME280;57491;42.694;23.314;2022-10-17T09:58:00;96583.53;;;30.69;14.27
70127;BME280;57491;42.694;23.314;2022-10-17T10:00:29;96566.56;;;30.98;14.87
70127;BME280;57491;42.694;23.314;2022-10-17T10:03:09;96572.44;;;29.94;15.57
70127;BME280;57491;42.694;23.314;2022-10-17T10:05:39;96554.94;;;28.77;15.85
70127;BME280;57491;42.694;23.314;2022-10-17T10:08:13;96567.81;;;29.17;16.10
70127;BME280;57491;42.694;23.314;2022-10-17T10:10:42;96568.63;;;29.85;15.25
70127;BME280;57491;42.694;23.314;2022-10-17T10:13:17;96546.72;;;30.13;14.71
70127;BME280;57491;42.694;23.314;2022-10-17T10:15:47;96556.63;;;30.99;13.87
70127;BME280;57491;42.694;23.314;2022-10-17T10:18:31;96559.53;;;31.97;13.30
70127;BME280;57491;42.694;23.314;2022-10-17T10:21:08;96556.28;;;32.78;12.78
70127;BME280;57491;42.694;23.314;2022-10-17T10:23:37;96559.03;;;32.97;11.48
70127;BME280;57491;42.694;23.314;2022-10-17T10:26:16;96548.16;;;33.07;11.71
70127;BME280;57491;42.694;23.314;2022-10-17T10:28:51;96553.69;;;33.44;10.53
70127;BME280;57491;42.694;23.314;2022-10-17T10:31:25;96552.69;;;33.83;10.06
70127;BME280;57491;42.694;23.314;2022-10-17T10:33:54;96549.63;;;33.89;9.97
70127;BME280;57491;42.694;23.314;2022-10-17T10:36:22;96546.56;;;34.15;10.01
70127;BME280;57491;42.694;23.314;2022-10-17T10:38:52;96547.31;;;34.39;10.29
70127;BME280;57491;42.694;23.314;2022-10-17T10:41:21;96533.38;;;34.64;10.73
70127;BME280;57491;42.694;23.314;2022-10-17T10:43:50;96542.28;;;34.97;10.02
70127;BME280;57491;42.694;23.314;2022-10-17T10:46:20;96541.22;;;35.39;9.82
70127;BME280;57491;42.694;23.314;2022-10-17T10:48:54;96533.13;;;35.39;10.01
70127;BME280;57491;42.694;23.314;2022-10-17T10:51:27;96506.38;;;35.38;10.18
70127;BME280;57491;42.694;23.314;2022-10-17T10:54:00;96530.09;;;35.54;10.05
70127;BME280;57491;42.694;23.314;2022-10-17T10:56:30;96528.03;;;36.01;9.78
70127;BME280;57491;42.694;23.314;2022-10-17T10:59:03;96505.50;;;36.58;9.40
70127;BME280;57491;42.694;23.314;2022-10-17T11:01:38;96513.63;;;36.81;9.27
70127;BME280;57491;42.694;23.314;2022-10-17T11:04:20;96506.88;;;37.00;8.97
70127;BME280;57491;42.694;23.314;2022-10-17T11:06:51;96515.41;;;37.16;8.48
70127;BME280;57491;42.694;23.314;2022-10-17T11:09:25;96511.91;;;37.16;8.61
70127;BME280;57491;42.694;23.314;2022-10-17T11:11:57;96510.81;;;37.73;8.28
70127;BME280;57491;42.694;23.314;2022-10-17T11:14:36;96510.69;;;38.04;8.01
70127;BME280;57491;42.694;23.314;2022-10-17T11:17:10;96515.44;;;37.81;8.03
70127;BME280;57491;42.694;23.314;2022-10-17T11:19:45;96504.94;;;38.31;7.58
70127;BME280;57491;42.694;23.314;2022-10-17T11:22:18;96499.44;;;39.50;7.80
70127;BME280;57491;42.694;23.314;2022-10-17T11:24:51;96502.56;;;40.11;7.00
70127;BME280;57491;42.694;23.314;2022-10-17T11:27:22;96496.16;;;39.65;6.36
70127;BME280;57491;42.694;23.314;2022-10-17T11:29:50;96500.81;;;39.65;7.04
70127;BME280;57491;42.694;23.314;2022-10-17T11:32:21;96497.78;;;39.28;7.00
70127;BME280;57491;42.694;23.314;2022-10-17T11:34:54;96476.13;;;39.41;7.52
70127;BME280;57491;42.694;23.314;2022-10-17T11:37:27;96497.81;;;38.91;7.36
70127;BME280;57491;42.694;23.314;2022-10-17T11:39:59;96490.63;;;39.83;7.12
70127;BME280;57491;42.694;23.314;2022-10-17T11:42:32;96490.78;;;40.73;7.17
70127;BME280;57491;42.694;23.314;2022-10-17T11:45:03;96493.03;;;41.16;6.46
70127;BME280;57491;42.694;23.314;2022-10-17T11:47:39;96483.91;;;40.01;6.89
70127;BME280;57491;42.694;23.314;2022-10-17T11:50:19;96494.13;;;40.04;6.46
70127;BME280;57491;42.694;23.314;2022-10-17T11:52:50;96479.19;;;40.10;6.78
70127;BME280;57491;42.694;23.314;2022-10-17T11:55:21;96489.97;;;40.06;6.55
70127;BME280;57491;42.694;23.314;2022-10-17T11:57:58;96488.72;;;38.69;7.24
70127;BME280;57491;42.694;23.314;2022-10-17T12:00:41;96470.25;;;39.89;7.02
70127;BME280;57491;42.694;23.314;2022-10-17T12:06:12;96471.53;;;41.26;6.43
70127;BME280;57491;42.694;23.314;2022-10-17T12:08:48;96466.72;;;39.38;7.29
70127;BME280;57491;42.694;23.314;2022-10-17T12:11:28;96463.09;;;38.79;7.66
70127;BME280;57491;42.694;23.314;2022-10-17T12:13:59;96467.88;;;39.99;7.33
70127;BME280;57491;42.694;23.314;2022-10-17T12:16:43;96469.25;;;38.59;7.63
70127;BME280;57491;42.694;23.314;2022-10-17T12:22:20;96466.72;;;40.99;7.37
70127;BME280;57491;42.694;23.314;2022-10-17T12:24:58;96463.22;;;41.59;6.92
70127;BME280;57491;42.694;23.314;2022-10-17T12:27:38;96461.50;;;41.79;5.78
70127;BME280;57491;42.694;23.314;2022-10-17T12:30:21;96456.84;;;40.17;6.82
70127;BME280;57491;42.694;23.314;2022-10-17T12:32:55;96455.47;;;41.00;6.26
70127;BME280;57491;42.694;23.314;2022-10-17T12:35:24;96454.91;;;41.68;6.13
70127;BME280;57491;42.694;23.314;2022-10-17T12:38:26;96453.00;;;41.08;6.26
70127;BME280;57491;42.694;23.314;2022-10-17T12:40:56;96456.34;;;41.90;5.94
70127;BME280;57491;42.694;23.314;2022-10-17T12:43:54;96446.25;;;41.66;6.07
70127;BME280;57491;42.694;23.314;2022-10-17T12:46:48;96457.34;;;41.09;6.59
70127;BME280;57491;42.694;23.314;2022-10-17T12:49:46;96450.06;;;41.13;6.47
70127;BME280;57491;42.694;23.314;2022-10-17T12:52:24;96447.34;;;40.55;6.34
70127;BME280;57491;42.694;23.314;2022-10-17T12:54:56;96439.28;;;39.93;6.58
70127;BME280;57491;42.694;23.314;2022-10-17T12:57:32;96439.16;;;40.55;6.34
70127;BME280;57491;42.694;23.314;2022-10-17T13:00:03;96443.75;;;40.76;5.78
70127;BME280;57491;42.694;23.314;2022-10-17T13:02:32;96439.44;;;39.47;6.96
70127;BME280;57491;42.694;23.314;2022-10-17T13:05:07;96437.38;;;40.27;7.01
70127;BME280;57491;42.694;23.314;2022-10-17T13:07:40;96427.75;;;40.86;6.55
70127;BME280;57491;42.694;23.314;2022-10-17T13:10:18;96449.56;;;39.88;6.89
70127;BME280;57491;42.694;23.314;2022-10-17T13:12:46;96442.81;;;39.14;7.20
70127;BME280;57491;42.694;23.314;2022-10-17T13:15:16;96437.09;;;37.15;8.04
70127;BME280;57491;42.694;23.314;2022-10-17T13:17:44;96442.97;;;34.75;9.68
70127;BME280;57491;42.694;23.314;2022-10-17T13:20:18;96434.63;;;33.13;10.50
70127;BME280;57491;42.694;23.314;2022-10-17T13:22:48;96434.28;;;31.81;11.83
70127;BME280;57491;42.694;23.314;2022-10-17T13:25:18;96437.38;;;31.10;12.59